sensor_id;sensor_type;location;lat;lon;timestamp;pressure;altitude;pressure_sealevel;temperature;humidity
18900;BME280;9582;52.018;6.306;2023-12-20T00:01:07;101856.38;;;6.13;100.00
18900;BME280;9582;52.018;6.306;2023-12-20T00:03:34;101864.25;;;6.07;100.00
18900;BME280;9582;52.018;6.306;2023-12-20T00:06:00;101883.28;;;6.06;100.00
18900;BME280;9582;52.018;6.306;2023-12-20T00:08:27;101890.22;;;6.05;100.00
18900;BME280;9582;52.018;6.306;2023-12-20T00:10:53;101894.56;;;6.03;100.00
18900;BME280;9582;52.018;6.306;2023-12-20T00:13:21;101889.44;;;5.97;100.00
18900;BME280;9582;52.018;6.306;2023-12-20T00:15:48;101891.13;;;6.00;100.00
18900;BME280;9582;52.018;6.306;2023-12-20T00:18:14;101884.19;;;6.02;100.00
18900;BME280;9582;52.018;6.306;2023-12-20T00:20:41;101894.63;;;5.96;100.00
18900;BME280;9582;52.018;6.306;2023-12-20T00:23:08;101903.31;;;5.95;100.00
18900;BME280;9582;52.018;6.306;2023-12-20T00:25:34;101914.53;;;5.94;100.00
18900;BME280;9582;52.018;6.306;2023-12-20T00:28:02;101921.50;;;5.90;100.00
18900;BME280;9582;52.018;6.306;2023-12-20T00:30:30;101928.47;;;5.85;100.00
18900;BME280;9582;52.018;6.306;2023-12-20T00:32:57;101936.25;;;5.79;100.00
18900;BME280;9582;52.018;6.306;2023-12-20T00:35:24;101932.78;;;5.81;100.00
18900;BME280;9582;52.018;6.306;2023-12-20T00:37:50;101931.91;;;5.84;100.00
18900;BME280;9582;52.018;6.306;2023-12-20T00:40:17;101927.56;;;5.88;100.00
18900;BME280;9582;52.018;6.306;2023-12-20T00:42:43;101931.03;;;5.93;100.00
18900;BME280;9582;52.018;6.306;2023-12-20T00:45:12;101924.94;;;5.95;100.00
18900;BME280;9582;52.018;6.306;2023-12-20T00:47:41;101924.06;;;5.95;100.00
18900;BME280;9582;52.018;6.306;2023-12-20T00:50:08;101927.50;;;5.98;100.00
18900;BME280;9582;52.018;6.306;2023-12-20T00:52:34;101942.25;;;5.95;100.00
18900;BME280;9582;52.018;6.306;2023-12-20T00:55:01;101947.44;;;5.92;100.00
18900;BME280;9582;52.018;6.306;2023-12-20T00:57:29;101951.81;;;5.90;100.00
18900;BME280;9582;52.018;6.306;2023-12-20T00:59:56;101951.81;;;5.87;100.00
18900;BME280;9582;52.018;6.306;2023-12-20T01:02:23;101958.75;;;5.80;100.00
18900;BME280;9582;52.018;6.306;2023-12-20T01:04:51;101962.25;;;5.74;100.00
18900;BME280;9582;52.018;6.306;2023-12-20T01:07:17;101963.13;;;5.73;100.00
18900;BME280;9582;52.018;6.306;2023-12-20T01:09:44;101953.66;;;5.65;100.00
18900;BME280;9582;52.018;6.306;2023-12-20T01:12:11;101938.97;;;5.59;100.00
18900;BME280;9582;52.018;6.306;2023-12-20T01:14:37;101942.44;;;5.60;100.00
18900;BME280;9582;52.018;6.306;2023-12-20T01:17:04;101939.00;;;5.56;100.00
18900;BME280;9582;52.018;6.306;2023-12-20T01:19:31;101942.47;;;5.54;100.00
18900;BME280;9582;52.018;6.306;2023-12-20T01:21:59;101949.41;;;5.53;100.00
18900;BME280;9582;52.018;6.306;2023-12-20T01:24:26;101950.25;;;5.54;100.00
18900;BME280;9582;52.018;6.306;2023-12-20T01:26:52;101960.66;;;5.51;100.00
18900;BME280;9582;52.018;6.306;2023-12-20T01:29:19;101958.09;;;5.46;100.00
18900;BME280;9582;52.018;6.306;2023-12-20T01:31:45;101959.00;;;5.41;100.00
18900;BME280;9582;52.018;6.306;2023-12-20T01:34:12;101968.53;;;5.37;100.00
18900;BME280;9582;52.018;6.306;2023-12-20T01:36:39;101987.53;;;5.38;100.00
18900;BME280;9582;52.018;6.306;2023-12-20T01:39:07;101987.56;;;5.36;100.00
18900;BME280;9582;52.018;6.306;2023-12-20T01:41:33;101977.19;;;5.36;100.00
18900;BME280;9582;52.018;6.306;2023-12-20T01:44:00;101980.63;;;5.37;100.00
18900;BME280;9582;52.018;6.306;2023-12-20T01:46:26;101984.97;;;5.36;100.00
18900;BME280;9582;52.018;6.306;2023-12-20T01:48:53;101984.09;;;5.34;100.00
18900;BME280;9582;52.018;6.306;2023-12-20T01:51:20;101986.69;;;5.31;100.00
18900;BME280;9582;52.018;6.306;2023-12-20T01:53:47;101983.25;;;5.29;100.00
18900;BME280;9582;52.018;6.306;2023-12-20T01:56:16;101991.91;;;5.30;100.00
18900;BME280;9582;52.018;6.306;2023-12-20T01:58:44;102009.22;;;5.28;100.00
18900;BME280;9582;52.018;6.306;2023-12-20T02:01:12;102005.75;;;5.22;100.00
18900;BME280;9582;52.018;6.306;2023-12-20T02:03:40;102003.16;;;5.24;100.00
18900;BME280;9582;52.018;6.306;2023-12-20T02:06:07;102010.06;;;5.30;100.00
18900;BME280;9582;52.018;6.306;2023-12-20T02:08:34;102021.31;;;5.30;100.00
18900;BME280;9582;52.018;6.306;2023-12-20T02:11:01;102016.09;;;5.36;100.00
18900;BME280;9582;52.018;6.306;2023-12-20T02:13:30;102016.06;;;5.38;100.00
18900;BME280;9582;52.018;6.306;2023-12-20T02:15:57;102017.78;;;5.40;100.00
18900;BME280;9582;52.018;6.306;2023-12-20T02:18:24;102020.38;;;5.43;100.00
18900;BME280;9582;52.018;6.306;2023-12-20T02:20:50;102015.19;;;5.43;100.00
18900;BME280;9582;52.018;6.306;2023-12-20T02:23:18;102023.84;;;5.44;100.00
18900;BME280;9582;52.018;6.306;2023-12-20T02:25:46;102047.16;;;5.47;100.00
18900;BME280;9582;52.018;6.306;2023-12-20T02:28:13;102048.88;;;5.46;100.00
18900;BME280;9582;52.018;6.306;2023-12-20T02:30:39;102016.91;;;5.47;100.00
18900;BME280;9582;52.018;6.306;2023-12-20T02:33:07;102005.63;;;5.51;100.00
18900;BME280;9582;52.018;6.306;2023-12-20T02:35:35;101986.59;;;5.54;100.00
18900;BME280;9582;52.018;6.306;2023-12-20T02:38:01;101994.38;;;5.54;100.00
18900;BME280;9582;52.018;6.306;2023-12-20T02:40:29;101966.69;;;5.57;100.00
18900;BME280;9582;52.018;6.306;2023-12-20T02:42:56;101959.75;;;5.59;100.00
18900;BME280;9582;52.018;6.306;2023-12-20T02:45:22;101965.81;;;5.61;100.00
18900;BME280;9582;52.018;6.306;2023-12-20T02:47:49;101964.06;;;5.60;100.00
18900;BME280;9582;52.018;6.306;2023-12-20T02:50:15;101975.31;;;5.61;100.00
18900;BME280;9582;52.018;6.306;2023-12-20T02:55:10;101983.97;;;5.58;100.00
18900;BME280;9582;52.018;6.306;2023-12-20T02:57:38;101985.69;;;5.59;100.00
18900;BME280;9582;52.018;6.306;2023-12-20T03:00:07;101967.53;;;5.61;100.00
18900;BME280;9582;52.018;6.306;2023-12-20T03:02:34;101963.19;;;5.60;100.00
18900;BME280;9582;52.018;6.306;2023-12-20T03:05:01;101955.44;;;5.58;100.00
18900;BME280;9582;52.018;6.306;2023-12-20T03:07:28;101931.22;;;5.58;100.00
18900;BME280;9582;52.018;6.306;2023-12-20T03:09:54;101855.97;;;5.59;100.00
18900;BME280;9582;52.018;6.306;2023-12-20T03:12:21;101772.97;;;5.58;100.00
18900;BME280;9582;52.018;6.306;2023-12-20T03:14:49;101753.06;;;5.61;100.00
18900;BME280;9582;52.018;6.306;2023-12-20T03:17:16;101780.72;;;5.59;100.00
18900;BME280;9582;52.018;6.306;2023-12-20T03:19:42;101778.97;;;5.63;100.00
18900;BME280;9582;52.018;6.306;2023-12-20T03:22:09;101771.19;;;5.63;100.00
18900;BME280;9582;52.018;6.306;2023-12-20T03:24:35;101774.66;;;5.60;100.00
18900;BME280;9582;52.018;6.306;2023-12-20T03:27:03;101777.28;;;5.60;100.00
18900;BME280;9582;52.018;6.306;2023-12-20T03:29:29;101774.66;;;5.59;100.00
18900;BME280;9582;52.018;6.306;2023-12-20T03:31:57;101776.44;;;5.58;100.00
18900;BME280;9582;52.018;6.306;2023-12-20T03:34:24;101772.97;;;5.56;100.00
18900;BME280;9582;52.018;6.306;2023-12-20T03:36:50;101776.44;;;5.58;100.00
18900;BME280;9582;52.018;6.306;2023-12-20T03:39:17;101772.97;;;5.56;100.00
18900;BME280;9582;52.018;6.306;2023-12-20T03:41:44;101748.72;;;5.59;100.00
18900;BME280;9582;52.018;6.306;2023-12-20T03:44:10;101747.03;;;5.56;100.00
18900;BME280;9582;52.018;6.306;2023-12-20T03:46:37;101749.63;;;5.58;100.00
18900;BME280;9582;52.018;6.306;2023-12-20T03:49:05;101731.53;;;5.50;100.00
18900;BME280;9582;52.018;6.306;2023-12-20T03:51:32;101736.75;;;5.47;100.00
18900;BME280;9582;52.018;6.306;2023-12-20T03:53:58;101728.09;;;5.45;100.00
18900;BME280;9582;52.018;6.306;2023-12-20T03:56:25;101721.19;;;5.47;100.00
18900;BME280;9582;52.018;6.306;2023-12-20T03:58:51;101722.91;;;5.48;100.00
18900;BME280;9582;52.018;6.306;2023-12-20T04:01:18;101735.91;;;5.47;100.00
18900;BME280;9582;52.018;6.306;2023-12-20T04:03:44;101741.09;;;5.47;100.00
18900;BME280;9582;52.018;6.306;2023-12-20T04:06:17;101750.53;;;5.51;100.00
18900;BME280;9582;52.018;6.306;2023-12-20T04:08:44;101743.63;;;5.53;100.00
18900;BME280;9582;52.018;6.306;2023-12-20T04:11:10;101728.00;;;5.57;100.00
18900;BME280;9582;52.018;6.306;2023-12-20T04:13:37;101720.22;;;5.57;100.00
18900;BME280;9582;52.018;6.306;2023-12-20T04:16:04;101722.84;;;5.56;100.00
18900;BME280;9582;52.018;6.306;2023-12-20T04:18:31;101724.56;;;5.55;100.00
18900;BME280;9582;52.018;6.306;2023-12-20T04:20:58;101716.84;;;5.49;100.00
18900;BME280;9582;52.018;6.306;2023-12-20T04:23:26;101729.88;;;5.43;100.00
18900;BME280;9582;52.018;6.306;2023-12-20T04:25:53;101721.25;;;5.41;100.00
18900;BME280;9582;52.018;6.306;2023-12-20T04:28:19;101723.81;;;5.43;100.00
18900;BME280;9582;52.018;6.306;2023-12-20T04:30:46;101721.19;;;5.47;100.00
18900;BME280;9582;52.018;6.306;2023-12-20T04:33:12;101720.25;;;5.54;100.00
18900;BME280;9582;52.018;6.306;2023-12-20T04:35:39;101723.66;;;5.59;100.00
18900;BME280;9582;52.018;6.306;2023-12-20T04:38:08;101719.31;;;5.60;100.00
18900;BME280;9582;52.018;6.306;2023-12-20T04:40:36;101708.06;;;5.64;100.00
18900;BME280;9582;52.018;6.306;2023-12-20T04:43:03;101705.44;;;5.65;100.00
18900;BME280;9582;52.018;6.306;2023-12-20T04:45:30;101715.81;;;5.65;100.00
18900;BME280;9582;52.018;6.306;2023-12-20T04:47:56;101702.88;;;5.64;100.00
18900;BME280;9582;52.018;6.306;2023-12-20T04:50:23;101703.69;;;5.66;100.00
18900;BME280;9582;52.018;6.306;2023-12-20T04:52:50;101704.56;;;5.66;100.00
18900;BME280;9582;52.018;6.306;2023-12-20T04:55:16;101703.66;;;5.69;100.00
18900;BME280;9582;52.018;6.306;2023-12-20T04:57:44;101705.44;;;5.65;100.00
18900;BME280;9582;52.018;6.306;2023-12-20T05:00:12;101693.28;;;5.69;100.00
18900;BME280;9582;52.018;6.306;2023-12-20T05:02:40;101700.16;;;5.74;100.00
18900;BME280;9582;52.018;6.306;2023-12-20T05:05:08;101701.78;;;5.83;100.00
18900;BME280;9582;52.018;6.306;2023-12-20T05:07:34;101700.06;;;5.83;100.00
18900;BME280;9582;52.018;6.306;2023-12-20T05:10:02;101686.19;;;5.88;100.00
18900;BME280;9582;52.018;6.306;2023-12-20T05:12:29;101689.59;;;5.93;100.00
18900;BME280;9582;52.018;6.306;2023-12-20T05:14:58;101691.34;;;5.92;100.00
18900;BME280;9582;52.018;6.306;2023-12-20T05:17:24;101689.59;;;5.91;100.00
18900;BME280;9582;52.018;6.306;2023-12-20T05:19:51;101680.97;;;5.91;100.00
18900;BME280;9582;52.018;6.306;2023-12-20T05:22:18;101677.50;;;5.92;100.00
18900;BME280;9582;52.018;6.306;2023-12-20T05:24:45;101667.13;;;5.92;100.00
18900;BME280;9582;52.018;6.306;2023-12-20T05:27:12;101672.31;;;5.92;100.00
18900;BME280;9582;52.018;6.306;2023-12-20T05:29:38;101674.06;;;5.90;100.00
18900;BME280;9582;52.018;6.306;2023-12-20T05:32:06;101675.75;;;5.91;100.00
18900;BME280;9582;52.018;6.306;2023-12-20T05:34:33;101676.59;;;5.94;100.00
18900;BME280;9582;52.018;6.306;2023-12-20T05:37:00;101668.72;;;5.99;100.00
18900;BME280;9582;52.018;6.306;2023-12-20T05:39:27;101661.81;;;6.01;100.00
18900;BME280;9582;52.018;6.306;2023-12-20T05:41:53;101663.47;;;6.05;100.00
18900;BME280;9582;52.018;6.306;2023-12-20T05:44:20;101658.25;;;6.08;100.00
18900;BME280;9582;52.018;6.306;2023-12-20T05:46:47;101654.78;;;6.09;100.00
18900;BME280;9582;52.018;6.306;2023-12-20T05:49:15;101668.59;;;6.11;100.00
18900;BME280;9582;52.018;6.306;2023-12-20T05:51:41;101661.63;;;6.13;100.00
18900;BME280;9582;52.018;6.306;2023-12-20T05:54:09;101665.09;;;6.13;100.00
18900;BME280;9582;52.018;6.306;2023-12-20T05:56:36;101668.56;;;6.14;100.00
18900;BME280;9582;52.018;6.306;2023-12-20T05:59:02;101651.28;;;6.11;100.00
18900;BME280;9582;52.018;6.306;2023-12-20T06:01:29;101659.06;;;6.11;100.00
18900;BME280;9582;52.018;6.306;2023-12-20T06:03:55;101652.09;;;6.13;100.00
18900;BME280;9582;52.018;6.306;2023-12-20T06:06:23;101655.53;;;6.15;100.00
18900;BME280;9582;52.018;6.306;2023-12-20T06:08:50;101647.75;;;6.17;100.00
18900;BME280;9582;52.018;6.306;2023-12-20T06:11:17;101655.50;;;6.18;100.00
18900;BME280;9582;52.018;6.306;2023-12-20T06:13:43;101658.09;;;6.20;100.00
18900;BME280;9582;52.018;6.306;2023-12-20T06:16:10;101640.78;;;6.20;100.00
18900;BME280;9582;52.018;6.306;2023-12-20T06:18:37;101644.19;;;6.22;100.00
18900;BME280;9582;52.018;6.306;2023-12-20T06:21:04;101647.66;;;6.23;100.00
18900;BME280;9582;52.018;6.306;2023-12-20T06:23:33;101639.84;;;6.24;100.00
18900;BME280;9582;52.018;6.306;2023-12-20T06:26:00;101626.88;;;6.23;100.00
18900;BME280;9582;52.018;6.306;2023-12-20T06:28:27;101620.78;;;6.25;100.00
18900;BME280;9582;52.018;6.306;2023-12-20T06:30:53;101622.53;;;6.25;100.00
18900;BME280;9582;52.018;6.306;2023-12-20T06:33:20;101623.34;;;6.27;100.00
18900;BME280;9582;52.018;6.306;2023-12-20T06:35:48;101619.88;;;6.28;100.00
18900;BME280;9582;52.018;6.306;2023-12-20T06:38:13;101611.22;;;6.29;100.00
18900;BME280;9582;52.018;6.306;2023-12-20T06:40:41;101587.81;;;6.30;100.00
18900;BME280;9582;52.018;6.306;2023-12-20T06:43:08;101590.38;;;6.33;100.00
18900;BME280;9582;52.018;6.306;2023-12-20T06:45:34;101580.75;;;6.38;100.00
18900;BME280;9582;52.018;6.306;2023-12-20T06:48:01;101585.03;;;6.41;100.00
18900;BME280;9582;52.018;6.306;2023-12-20T06:50:28;101576.34;;;6.45;100.00
18900;BME280;9582;52.018;6.306;2023-12-20T06:52:54;101572.81;;;6.48;100.00
18900;BME280;9582;52.018;6.306;2023-12-20T06:55:21;101577.97;;;6.49;100.00
18900;BME280;9582;52.018;6.306;2023-12-20T06:57:49;101576.25;;;6.51;100.00
18900;BME280;9582;52.018;6.306;2023-12-20T07:00:17;101579.66;;;6.53;100.00
18900;BME280;9582;52.018;6.306;2023-12-20T07:02:45;101571.81;;;6.56;100.00
18900;BME280;9582;52.018;6.306;2023-12-20T07:05:16;101566.63;;;6.56;100.00
18900;BME280;9582;52.018;6.306;2023-12-20T07:07:45;101559.66;;;6.58;100.00
18900;BME280;9582;52.018;6.306;2023-12-20T07:10:11;101560.50;;;6.60;100.00
18900;BME280;9582;52.018;6.306;2023-12-20T07:12:38;101546.63;;;6.61;100.00
18900;BME280;9582;52.018;6.306;2023-12-20T07:15:07;101547.50;;;6.60;100.00
18900;BME280;9582;52.018;6.306;2023-12-20T07:17:34;101543.09;;;6.65;100.00
18900;BME280;9582;52.018;6.306;2023-12-20T07:20:01;101543.09;;;6.65;100.00
18900;BME280;9582;52.018;6.306;2023-12-20T07:22:29;101524.84;;;6.67;100.00
18900;BME280;9582;52.018;6.306;2023-12-20T07:24:56;101518.78;;;6.68;100.00
18900;BME280;9582;52.018;6.306;2023-12-20T07:27:23;101500.59;;;6.68;100.00
18900;BME280;9582;52.018;6.306;2023-12-20T07:29:50;101496.25;;;6.68;100.00
18900;BME280;9582;52.018;6.306;2023-12-20T07:32:18;101486.75;;;6.67;100.00
18900;BME280;9582;52.018;6.306;2023-12-20T07:34:45;101480.72;;;6.65;100.00
18900;BME280;9582;52.018;6.306;2023-12-20T07:37:11;101480.72;;;6.65;100.00
18900;BME280;9582;52.018;6.306;2023-12-20T07:39:39;101485.91;;;6.65;100.00
18900;BME280;9582;52.018;6.306;2023-12-20T07:42:06;101485.88;;;6.67;100.00
18900;BME280;9582;52.018;6.306;2023-12-20T07:44:33;101447.75;;;6.67;100.00
18900;BME280;9582;52.018;6.306;2023-12-20T07:47:01;101448.63;;;6.66;100.00
18900;BME280;9582;52.018;6.306;2023-12-20T07:49:30;101429.63;;;6.66;100.00
18900;BME280;9582;52.018;6.306;2023-12-20T07:51:57;101426.97;;;6.67;100.00
18900;BME280;9582;52.018;6.306;2023-12-20T07:54:23;101372.44;;;6.66;100.00
18900;BME280;9582;52.018;6.306;2023-12-20T07:56:50;101344.75;;;6.65;100.00
18900;BME280;9582;52.018;6.306;2023-12-20T07:59:16;101335.22;;;6.64;100.00
18900;BME280;9582;52.018;6.306;2023-12-20T08:01:43;101340.41;;;6.65;100.00
18900;BME280;9582;52.018;6.306;2023-12-20T08:04:10;101349.88;;;6.66;100.00
18900;BME280;9582;52.018;6.306;2023-12-20T08:06:38;101349.94;;;6.65;100.00
18900;BME280;9582;52.018;6.306;2023-12-20T08:09:05;101356.84;;;6.66;100.00
18900;BME280;9582;52.018;6.306;2023-12-20T08:11:31;101354.25;;;6.66;100.00
18900;BME280;9582;52.018;6.306;2023-12-20T08:13:58;101369.75;;;6.70;100.00
18900;BME280;9582;52.018;6.306;2023-12-20T08:16:24;101391.28;;;6.77;100.00
18900;BME280;9582;52.018;6.306;2023-12-20T08:18:51;101373.97;;;6.76;100.00
18900;BME280;9582;52.018;6.306;2023-12-20T08:21:18;101363.53;;;6.77;100.00
18900;BME280;9582;52.018;6.306;2023-12-20T08:23:46;101362.66;;;6.78;100.00
18900;BME280;9582;52.018;6.306;2023-12-20T08:26:18;101340.97;;;6.79;100.00
18900;BME280;9582;52.018;6.306;2023-12-20T08:28:45;101318.44;;;6.80;100.00
18900;BME280;9582;52.018;6.306;2023-12-20T08:31:13;101323.59;;;6.81;100.00
18900;BME280;9582;52.018;6.306;2023-12-20T08:33:40;101317.53;;;6.82;100.00
18900;BME280;9582;52.018;6.306;2023-12-20T08:36:07;101317.41;;;6.87;100.00
18900;BME280;9582;52.018;6.306;2023-12-20T08:38:33;101312.22;;;6.87;100.00
18900;BME280;9582;52.018;6.306;2023-12-20T08:41:01;101281.81;;;6.89;100.00
18900;BME280;9582;52.018;6.306;2023-12-20T08:43:30;101278.34;;;6.90;100.00
18900;BME280;9582;52.018;6.306;2023-12-20T08:45:57;101254.03;;;6.92;100.00
18900;BME280;9582;52.018;6.306;2023-12-20T08:48:23;101267.00;;;6.94;100.00
18900;BME280;9582;52.018;6.306;2023-12-20T08:50:50;101240.94;;;6.97;100.00
18900;BME280;9582;52.018;6.306;2023-12-20T08:53:17;101240.03;;;6.98;100.00
18900;BME280;9582;52.018;6.306;2023-12-20T08:55:44;101256.44;;;7.02;100.00
18900;BME280;9582;52.018;6.306;2023-12-20T08:58:12;101226.94;;;7.03;100.00
18900;BME280;9582;52.018;6.306;2023-12-20T09:00:39;101218.31;;;7.01;100.00
18900;BME280;9582;52.018;6.306;2023-12-20T09:03:05;101225.22;;;7.02;100.00
18900;BME280;9582;52.018;6.306;2023-12-20T09:05:32;101228.75;;;6.99;100.00
18900;BME280;9582;52.018;6.306;2023-12-20T09:07:58;101219.22;;;6.98;100.00
18900;BME280;9582;52.018;6.306;2023-12-20T09:10:25;101238.34;;;6.95;100.00
18900;BME280;9582;52.018;6.306;2023-12-20T09:12:52;101234.91;;;6.95;100.00
18900;BME280;9582;52.018;6.306;2023-12-20T09:15:23;101218.50;;;6.93;100.00
18900;BME280;9582;52.018;6.306;2023-12-20T09:17:49;101230.69;;;6.89;100.00
18900;BME280;9582;52.018;6.306;2023-12-20T09:20:16;101227.28;;;6.87;100.00
18900;BME280;9582;52.018;6.306;2023-12-20T09:22:43;101230.78;;;6.86;100.00
18900;BME280;9582;52.018;6.306;2023-12-20T09:25:10;101223.94;;;6.82;100.00
18900;BME280;9582;52.018;6.306;2023-12-20T09:27:38;101230.91;;;6.80;100.00
18900;BME280;9582;52.018;6.306;2023-12-20T09:30:05;101228.28;;;6.82;100.00
18900;BME280;9582;52.018;6.306;2023-12-20T09:32:33;101232.63;;;6.81;100.00
18900;BME280;9582;52.018;6.306;2023-12-20T09:35:00;101243.91;;;6.80;100.00
18900;BME280;9582;52.018;6.306;2023-12-20T09:37:27;101257.81;;;6.79;100.00
18900;BME280;9582;52.018;6.306;2023-12-20T09:39:54;101278.63;;;6.78;100.00
18900;BME280;9582;52.018;6.306;2023-12-20T09:42:25;101264.75;;;6.79;100.00
18900;BME280;9582;52.018;6.306;2023-12-20T09:44:57;101257.88;;;6.76;100.00
18900;BME280;9582;52.018;6.306;2023-12-20T09:47:27;101250.06;;;6.76;100.00
18900;BME280;9582;52.018;6.306;2023-12-20T09:49:55;101261.41;;;6.74;100.00
18900;BME280;9582;52.018;6.306;2023-12-20T09:52:24;101272.66;;;6.74;100.00
18900;BME280;9582;52.018;6.306;2023-12-20T09:54:52;101277.91;;;6.71;100.00
18900;BME280;9582;52.018;6.306;2023-12-20T09:57:20;101288.31;;;6.71;100.00
18900;BME280;9582;52.018;6.306;2023-12-20T09:59:47;101285.72;;;6.70;100.00
18900;BME280;9582;52.018;6.306;2023-12-20T10:02:14;101304.78;;;6.70;100.00
18900;BME280;9582;52.018;6.306;2023-12-20T10:04:46;101286.59;;;6.70;100.00
18900;BME280;9582;52.018;6.306;2023-12-20T10:07:15;101329.09;;;6.68;100.00
18900;BME280;9582;52.018;6.306;2023-12-20T10:09:41;101318.69;;;6.68;100.00
18900;BME280;9582;52.018;6.306;2023-12-20T10:12:09;101279.66;;;6.69;100.00
18900;BME280;9582;52.018;6.306;2023-12-20T10:14:35;101234.59;;;6.70;100.00
18900;BME280;9582;52.018;6.306;2023-12-20T10:17:02;101238.09;;;6.69;100.00
18900;BME280;9582;52.018;6.306;2023-12-20T10:19:29;101238.16;;;6.66;100.00
18900;BME280;9582;52.018;6.306;2023-12-20T10:21:56;101257.25;;;6.65;100.00
18900;BME280;9582;52.018;6.306;2023-12-20T10:24:25;101255.47;;;6.67;100.00
18900;BME280;9582;52.018;6.306;2023-12-20T10:27:01;101285.72;;;6.70;100.00
18900;BME280;9582;52.018;6.306;2023-12-20T10:29:32;101262.38;;;6.68;100.00
18900;BME280;9582;52.018;6.306;2023-12-20T10:31:58;101235.47;;;6.71;100.00
18900;BME280;9582;52.018;6.306;2023-12-20T10:34:25;101308.13;;;6.75;100.00
18900;BME280;9582;52.018;6.306;2023-12-20T10:36:52;101283.84;;;6.76;100.00
18900;BME280;9582;52.018;6.306;2023-12-20T10:39:18;101286.47;;;6.76;100.00
18900;BME280;9582;52.018;6.306;2023-12-20T10:41:48;101279.47;;;6.78;100.00
18900;BME280;9582;52.018;6.306;2023-12-20T10:44:15;101285.47;;;6.80;100.00
18900;BME280;9582;52.018;6.306;2023-12-20T10:46:42;101279.41;;;6.81;100.00
18900;BME280;9582;52.018;6.306;2023-12-20T10:49:15;101300.13;;;6.84;100.00
18900;BME280;9582;52.018;6.306;2023-12-20T10:51:46;101324.28;;;6.89;100.00
18900;BME280;9582;52.018;6.306;2023-12-20T10:54:14;101313.00;;;6.90;100.00
18900;BME280;9582;52.018;6.306;2023-12-20T10:56:40;101311.22;;;6.92;100.00
18900;BME280;9582;52.018;6.306;2023-12-20T10:59:10;101284.22;;;7.00;100.00
18900;BME280;9582;52.018;6.306;2023-12-20T11:01:38;101294.50;;;7.04;100.00
18900;BME280;9582;52.018;6.306;2023-12-20T11:04:09;101290.09;;;7.08;100.00
18900;BME280;9582;52.018;6.306;2023-12-20T11:06:43;101294.44;;;7.07;100.00
18900;BME280;9582;52.018;6.306;2023-12-20T11:09:17;101277.03;;;7.09;100.00
18900;BME280;9582;52.018;6.306;2023-12-20T11:11:59;101283.97;;;7.09;100.00
18900;BME280;9582;52.018;6.306;2023-12-20T11:14:33;101286.56;;;7.09;100.00
18900;BME280;9582;52.018;6.306;2023-12-20T11:17:06;101293.63;;;7.05;100.00
18900;BME280;9582;52.018;6.306;2023-12-20T11:19:36;101297.97;;;7.03;100.00
18900;BME280;9582;52.018;6.306;2023-12-20T11:22:03;101299.69;;;7.04;100.00
18900;BME280;9582;52.018;6.306;2023-12-20T11:24:31;101294.44;;;7.06;100.00
18900;BME280;9582;52.018;6.306;2023-12-20T11:26:59;101275.38;;;7.07;100.00
18900;BME280;9582;52.018;6.306;2023-12-20T11:29:32;101264.09;;;7.06;100.00
18900;BME280;9582;52.018;6.306;2023-12-20T11:32:00;101272.75;;;7.07;100.00
18900;BME280;9582;52.018;6.306;2023-12-20T11:34:27;101271.88;;;7.08;100.00
18900;BME280;9582;52.018;6.306;2023-12-20T11:36:57;101276.94;;;7.14;100.00
18900;BME280;9582;52.018;6.306;2023-12-20T11:39:25;101275.09;;;7.19;100.00
18900;BME280;9582;52.018;6.306;2023-12-20T11:41:54;101271.44;;;7.26;100.00
18900;BME280;9582;52.018;6.306;2023-12-20T11:44:21;101285.97;;;7.34;100.00
18900;BME280;9582;52.018;6.306;2023-12-20T11:46:49;101282.28;;;7.44;100.00
18900;BME280;9582;52.018;6.306;2023-12-20T11:49:16;101282.88;;;7.54;100.00
18900;BME280;9582;52.018;6.306;2023-12-20T11:51:43;101293.16;;;7.60;100.00
18900;BME280;9582;52.018;6.306;2023-12-20T11:54:10;101236.53;;;7.68;100.00
18900;BME280;9582;52.018;6.306;2023-12-20T11:56:37;101245.09;;;7.73;100.00
18900;BME280;9582;52.018;6.306;2023-12-20T11:59:04;101257.19;;;7.76;100.00
18900;BME280;9582;52.018;6.306;2023-12-20T12:01:31;101264.06;;;7.77;100.00
18900;BME280;9582;52.018;6.306;2023-12-20T12:04:06;101270.06;;;7.80;100.00
18900;BME280;9582;52.018;6.306;2023-12-20T12:06:33;101262.19;;;7.82;100.00
18900;BME280;9582;52.018;6.306;2023-12-20T12:08:59;101259.66;;;7.80;100.00
18900;BME280;9582;52.018;6.306;2023-12-20T12:11:26;101261.38;;;7.81;100.00
18900;BME280;9582;52.018;6.306;2023-12-20T12:13:53;101267.38;;;7.83;100.00
18900;BME280;9582;52.018;6.306;2023-12-20T12:16:20;101273.41;;;7.85;100.00
18900;BME280;9582;52.018;6.306;2023-12-20T12:18:55;101266.50;;;7.84;100.00
18900;BME280;9582;52.018;6.306;2023-12-20T12:21:23;101256.91;;;7.85;100.00
18900;BME280;9582;52.018;6.306;2023-12-20T12:23:49;101249.88;;;7.88;100.00
18900;BME280;9582;52.018;6.306;2023-12-20T12:26:16;101234.97;;;7.95;100.00
18900;BME280;9582;52.018;6.306;2023-12-20T12:28:43;101247.97;;;7.95;100.00
18900;BME280;9582;52.018;6.306;2023-12-20T12:31:13;101237.56;;;7.95;100.00
18900;BME280;9582;52.018;6.306;2023-12-20T12:33:40;101248.91;;;7.92;100.00
18900;BME280;9582;52.018;6.306;2023-12-20T12:36:07;101223.81;;;7.90;100.00
18900;BME280;9582;52.018;6.306;2023-12-20T12:38:35;101242.06;;;7.88;100.00
18900;BME280;9582;52.018;6.306;2023-12-20T12:41:02;101222.97;;;7.89;100.00
18900;BME280;9582;52.018;6.306;2023-12-20T12:43:29;101221.16;;;7.91;100.00
18900;BME280;9582;52.018;6.306;2023-12-20T12:45:56;101207.28;;;7.91;100.00
18900;BME280;9582;52.018;6.306;2023-12-20T12:48:22;101209.88;;;7.91;100.00
18900;BME280;9582;52.018;6.306;2023-12-20T12:50:49;101223.81;;;7.90;100.00
18900;BME280;9582;52.018;6.306;2023-12-20T12:53:17;101190.81;;;7.90;100.00
18900;BME280;9582;52.018;6.306;2023-12-20T12:55:45;101195.13;;;7.91;100.00
18900;BME280;9582;52.018;6.306;2023-12-20T12:58:12;101207.25;;;7.92;100.00
18900;BME280;9582;52.018;6.306;2023-12-20T13:00:38;101201.13;;;7.93;100.00
18900;BME280;9582;52.018;6.306;2023-12-20T13:03:05;101227.22;;;7.92;100.00